Time;durP1;ratioP1;P1;durP2;ratioP2;P2;SDS_P1;SDS_P2;PMS_P1;PMS_P2;Temp;Humidity;BMP_temperature;BMP_pressure;BME280_temperature;BME280_humidity;BME280_pressure;Samples;Min_cycle;Max_cycle;Signal;HPM_P1;HPM_P2
2022/10/30 00:01:40;;;;;;;20.20;11.95;;;;;;;12.01;100.00;101654.41;4994822;28;20184;-88
2022/10/30 00:04:05;;;;;;;22.60;12.57;;;;;;;12.19;100.00;101675.81;5013020;28;20091;-92
2022/10/30 00:06:30;;;;;;;20.27;12.65;;;;;;;12.17;100.00;101675.09;5013069;28;20040;-90
2022/10/30 00:08:56;;;;;;;26.17;12.90;;;;;;;12.17;100.00;101686.28;5013345;28;20022;-90
2022/10/30 00:11:21;;;;;;;21.85;12.23;;;;;;;12.16;100.00;101686.38;5012822;28;20029;-91
2022/10/30 00:13:47;;;;;;;22.10;12.32;;;;;;;12.10;100.00;101689.31;5013091;28;20144;-91
2022/10/30 00:16:12;;;;;;;22.08;11.82;;;;;;;12.05;100.00;101674.84;5014447;28;20030;-91
2022/10/30 00:18:38;;;;;;;23.92;11.93;;;;;;;12.04;100.00;101690.47;5013326;28;20022;-92
2022/10/30 00:21:10;;;;;;;21.83;12.07;;;;;;;12.01;100.00;101686.31;5013011;28;20025;-91
2022/10/30 00:23:35;;;;;;;19.73;11.77;;;;;;;11.95;100.00;101689.22;5012764;28;20048;-91
2022/10/30 00:26:05;;;;;;;20.75;12.50;;;;;;;11.93;100.00;101692.81;4995207;28;20176;-93
2022/10/30 00:28:31;;;;;;;21.50;13.15;;;;;;;11.88;100.00;101687.06;5014167;28;20028;-88
2022/10/30 00:31:01;;;;;;;18.35;11.68;;;;;;;11.89;100.00;101697.31;5016778;28;20109;-92
2022/10/30 00:33:26;;;;;;;21.70;13.13;;;;;;;11.71;100.00;101660.31;5017594;28;20022;-91
2022/10/30 00:35:51;;;;;;;20.13;12.73;;;;;;;11.81;100.00;101678.81;5017359;28;20544;-90
2022/10/30 00:38:19;;;;;;;22.60;12.35;;;;;;;11.81;100.00;101686.56;5016992;28;20026;-89
2022/10/30 00:40:45;;;;;;;21.83;12.38;;;;;;;11.65;100.00;101662.41;5016530;28;20034;-82
2022/10/30 00:43:30;;;;;;;22.50;12.10;;;;;;;11.77;100.00;101678.09;5016270;28;20030;-88
2022/10/30 00:45:59;;;;;;;23.20;12.43;;;;;;;11.74;100.00;101673.09;5016395;28;20080;-91
2022/10/30 00:48:25;;;;;;;22.58;12.45;;;;;;;11.57;100.00;101659.38;4999130;28;20053;-90
2022/10/30 00:50:52;;;;;;;19.17;12.07;;;;;;;11.65;100.00;101675.34;5016286;28;20064;-89
2022/10/30 00:53:19;;;;;;;20.77;12.05;;;;;;;11.49;100.00;101664.97;5016252;28;20052;-85
2022/10/30 00:55:57;;;;;;;22.25;13.05;;;;;;;11.46;100.00;101662.56;5016241;28;20045;-87
2022/10/30 00:58:35;;;;;;;23.40;13.00;;;;;;;11.46;100.00;101659.97;5015849;28;20052;-87
2022/10/30 01:01:06;;;;;;;23.05;12.10;;;;;;;11.51;100.00;101678.69;5016078;28;20022;-91
2022/10/30 01:03:33;;;;;;;;;;;;;;;11.54;100.00;101677.66;5016646;28;20036;-87
2022/10/30 01:06:03;;;;;;;20.33;12.45;;;;;;;11.47;100.00;101682.31;5016074;28;19909;-90
2022/10/30 01:08:29;;;;;;;21.92;11.77;;;;;;;11.41;100.00;101688.66;5015666;28;20026;-91
2022/10/30 01:10:57;;;;;;;19.95;11.50;;;;;;;11.22;100.00;101662.09;5015763;28;20033;-90
2022/10/30 01:13:23;;;;;;;23.58;11.95;;;;;;;11.41;100.00;101680.09;5015828;28;20030;-89
2022/10/30 01:16:09;;;;;;;23.08;12.07;;;;;;;11.39;100.00;101680.13;5016371;28;20041;-90
2022/10/30 01:19:13;;;;;;;19.67;12.60;;;;;;;11.37;100.00;101683.72;5015810;28;20062;-90
2022/10/30 01:22:14;;;;;;;19.27;11.45;;;;;;;11.34;100.00;101691.66;5014985;28;20042;-91
2022/10/30 01:24:54;;;;;;;20.60;12.27;;;;;;;11.12;100.00;101654.00;4998047;28;20045;-83
2022/10/30 01:27:57;;;;;;;20.92;12.25;;;;;;;11.32;100.00;101694.31;5015373;28;20083;-89
2022/10/30 01:30:42;;;;;;;21.50;11.95;;;;;;;11.23;100.00;101668.13;5015614;28;20033;-90
2022/10/30 01:33:31;;;;;;;20.42;12.00;;;;;;;11.33;100.00;101687.41;5015891;28;20025;-89
2022/10/30 01:36:07;;;;;;;20.30;12.65;;;;;;;11.26;100.00;101679.13;5015667;28;20462;-89
2022/10/30 01:38:41;;;;;;;21.48;12.35;;;;;;;11.28;100.00;101687.63;5016127;28;20025;-89
2022/10/30 01:41:06;;;;;;;21.48;12.38;;;;;;;11.23;100.00;101687.03;5015370;28;20037;-91
2022/10/30 01:43:34;;;;;;;20.20;12.18;;;;;;;11.22;100.00;101689.72;5015260;28;20026;-90
2022/10/30 01:46:08;;;;;;;18.58;12.32;;;;;;;11.19;100.00;101696.69;5015234;28;20080;-80
2022/10/30 01:48:57;;;;;;;21.05;12.68;;;;;;;11.19;100.00;101695.84;5015266;28;20033;-88
2022/10/30 01:52:00;;;;;;;21.13;12.05;;;;;;;11.21;100.00;101701.81;5015176;28;20030;-88
2022/10/30 01:54:57;;;;;;;25.73;13.07;;;;;;;11.17;100.00;101695.94;5015388;28;20029;-86
2022/10/30 01:57:52;;;;;;;22.10;12.75;;;;;;;11.22;100.00;101687.97;5015774;28;20036;-88
2022/10/30 02:00:19;;;;;;;22.05;11.73;;;;;;;11.11;100.00;101691.09;5013959;28;20026;-90
2022/10/30 02:02:45;;;;;;;22.58;12.50;;;;;;;11.00;100.00;101669.28;5015085;28;20037;-90
2022/10/30 02:05:18;;;;;;;20.33;12.18;;;;;;;11.16;100.00;101704.63;5014849;28;20033;-91
2022/10/30 02:07:43;;;;;;;25.73;13.15;;;;;;;11.17;100.00;101697.69;5014624;28;20498;-83
2022/10/30 02:10:10;;;;;;;19.95;12.02;;;;;;;11.17;100.00;101702.88;5014667;28;20124;-78
2022/10/30 02:12:35;;;;;;;20.95;12.40;;;;;;;11.18;100.00;101707.13;5014537;28;20030;-90
2022/10/30 02:15:01;;;;;;;22.00;12.40;;;;;;;11.18;100.00;101707.13;5014580;28;20543;-90
2022/10/30 02:17:27;;;;;;;22.80;13.05;;;;;;;11.15;100.00;101710.69;5014510;28;20475;-92
2022/10/30 02:19:52;;;;;;;18.23;12.13;;;;;;;11.09;100.00;101705.84;5014526;28;20125;-88
2022/10/30 02:22:18;;;;;;;19.75;12.65;;;;;;;11.10;100.00;101693.75;5014415;28;20042;-87
2022/10/30 02:24:44;;;;;;;20.15;12.73;;;;;;;11.07;100.00;101693.91;4997146;28;20109;-90
2022/10/30 02:27:09;;;;;;;17.98;11.77;;;;;;;11.05;100.00;101694.00;5014573;28;20431;-90
2022/10/30 02:29:34;;;;;;;18.55;12.43;;;;;;;11.01;100.00;101707.13;5014250;28;20382;-90
2022/10/30 02:32:00;;;;;;;18.65;12.15;;;;;;;10.84;100.00;101680.41;5014483;28;20044;-90
2022/10/30 02:34:26;;;;;;;20.13;12.32;;;;;;;10.90;100.00;101707.69;5014559;28;20029;-91
2022/10/30 02:36:51;;;;;;;19.85;12.50;;;;;;;10.91;100.00;101711.94;5014283;28;20044;-90
2022/10/30 02:39:16;;;;;;;19.67;11.35;;;;;;;10.91;100.00;101715.38;5014057;28;20064;-90
2022/10/30 02:41:42;;;;;;;19.58;13.02;;;;;;;10.75;100.00;101691.22;5014511;28;20022;-89
2022/10/30 02:44:07;;;;;;;17.92;11.65;;;;;;;10.79;100.00;101707.38;5014173;28;20524;-91
2022/10/30 02:46:33;;;;;;;20.23;11.77;;;;;;;10.82;100.00;101713.25;5014042;28;20516;-92
2022/10/30 02:48:58;;;;;;;19.77;12.05;;;;;;;10.81;100.00;101714.13;4995863;28;20037;-89
2022/10/30 02:51:24;;;;;;;31.60;13.45;;;;;;;10.78;100.00;101719.47;5013220;28;20103;-90
2022/10/30 02:53:49;;;;;;;21.13;11.90;;;;;;;10.58;100.00;101683.44;5013893;28;20034;-86
2022/10/30 02:56:15;;;;;;;19.75;11.25;;;;;;;10.73;100.00;101711.13;4996466;28;20363;-90
2022/10/30 02:58:41;;;;;;;21.48;11.60;;;;;;;10.63;100.00;101697.81;5013981;28;20061;-87
2022/10/30 03:01:18;;;;;;;20.63;12.10;;;;;;;10.71;100.00;101714.66;5013971;28;20021;-87
2022/10/30 03:03:44;;;;;;;21.52;12.50;;;;;;;10.59;100.00;101695.44;5013904;28;20057;-90
2022/10/30 03:06:14;;;;;;;18.95;12.40;;;;;;;10.41;100.00;101673.09;5013748;28;20494;-90
2022/10/30 03:08:40;;;;;;;21.73;12.30;;;;;;;10.64;100.00;101719.31;5014142;28;20056;-90
2022/10/30 03:11:14;;;;;;;20.48;12.80;;;;;;;10.62;100.00;101714.25;5013760;28;20465;-91
2022/10/30 03:13:40;;;;;;;26.17;12.68;;;;;;;10.55;100.00;101693.94;4996035;28;20032;-86
2022/10/30 03:16:11;;;;;;;24.33;12.60;;;;;;;10.39;100.00;101668.03;5013480;28;20022;-90
2022/10/30 03:18:37;;;;;;;20.77;12.80;;;;;;;10.57;100.00;101697.28;4996494;28;20033;-91
2022/10/30 03:21:05;;;;;;;20.83;12.50;;;;;;;10.42;100.00;101677.34;5013381;28;20033;-88
2022/10/30 03:23:31;;;;;;;21.90;12.45;;;;;;;10.50;100.00;101686.41;5013437;28;20108;-90
2022/10/30 03:25:57;;;;;;;23.48;13.27;;;;;;;10.54;100.00;101702.59;5013659;28;20034;-89
2022/10/30 03:28:25;;;;;;;20.02;12.80;;;;;;;10.41;100.00;101686.00;5013633;28;20033;-89
2022/10/30 03:30:56;;;;;;;18.67;12.55;;;;;;;10.52;100.00;101699.22;5013294;28;20029;-91
2022/10/30 03:33:22;;;;;;;28.35;13.82;;;;;;;10.56;100.00;101696.44;5013434;28;20041;-90
2022/10/30 03:35:47;;;;;;;17.73;12.23;;;;;;;10.55;100.00;101692.19;5013302;28;20026;-90
2022/10/30 03:38:12;;;;;;;24.67;13.18;;;;;;;10.58;100.00;101702.38;5013536;28;20088;-89
2022/10/30 03:40:38;;;;;;;19.33;13.07;;;;;;;10.54;100.00;101695.69;5013490;28;20029;-90
2022/10/30 03:43:04;;;;;;;24.65;13.27;;;;;;;10.58;100.00;101704.13;5013447;28;20030;-90
2022/10/30 03:45:31;;;;;;;22.65;12.77;;;;;;;10.57;100.00;101700.69;5013156;28;20022;-90
2022/10/30 03:47:56;;;;;;;25.58;12.95;;;;;;;10.54;100.00;101697.44;5013305;28;20030;-84
2022/10/30 03:50:21;;;;;;;20.63;13.02;;;;;;;10.56;100.00;101699.03;5013338;28;20470;-91
2022/10/30 03:52:47;;;;;;;21.65;11.90;;;;;;;10.56;100.00;101704.19;5013170;28;20066;-91
2022/10/30 03:55:12;;;;;;;19.20;12.02;;;;;;;10.46;100.00;101697.81;5013393;28;20105;-90
2022/10/30 03:57:38;;;;;;;22.33;13.82;;;;;;;10.54;100.00;101713.78;5013189;28;20164;-85
2022/10/30 04:00:04;;;;;;;19.67;12.43;;;;;;;10.51;100.00;101711.31;4995467;28;20029;-88
2022/10/30 04:02:30;;;;;;;20.08;12.60;;;;;;;10.45;100.00;101703.88;5014544;28;20441;-88
2022/10/30 04:04:55;;;;;;;22.75;12.18;;;;;;;10.52;100.00;101714.72;5017046;28;20057;-91
2022/10/30 04:07:20;;;;;;;22.15;12.80;;;;;;;10.48;100.00;101719.22;5017064;28;20054;-91
2022/10/30 04:09:45;;;;;;;20.35;12.07;;;;;;;10.41;100.00;101712.66;5017380;28;20159;-90
2022/10/30 04:12:11;;;;;;;20.70;12.45;;;;;;;10.18;100.00;101687.09;5016997;28;20091;-90
2022/10/30 04:14:36;;;;;;;20.27;13.70;;;;;;;10.29;100.00;101708.09;5017078;28;20029;-90
2022/10/30 04:17:04;;;;;;;20.92;11.30;;;;;;;10.40;100.00;101726.50;5016769;28;20480;-91
2022/10/30 04:19:30;;;;;;;22.33;13.10;;;;;;;10.39;100.00;101714.50;5015641;28;20413;-91
2022/10/30 04:21:55;;;;;;;22.23;12.68;;;;;;;10.40;100.00;101717.91;5016661;28;20018;-89
2022/10/30 04:24:21;;;;;;;20.70;12.35;;;;;;;10.34;100.00;101716.47;5016814;28;20038;-90
2022/10/30 04:26:46;;;;;;;19.98;12.60;;;;;;;10.32;100.00;101708.81;5016932;28;20028;-89
2022/10/30 04:29:11;;;;;;;19.00;12.35;;;;;;;10.33;100.00;101705.31;5017103;28;20053;-88
2022/10/30 04:31:37;;;;;;;19.38;12.23;;;;;;;10.27;100.00;101712.50;5017716;28;20034;-91
2022/10/30 04:34:02;;;;;;;19.63;12.50;;;;;;;10.27;100.00;101709.91;5017368;28;20464;-89
2022/10/30 04:36:32;;;;;;;19.77;12.68;;;;;;;10.25;100.00;101711.75;5017162;28;20022;-91
2022/10/30 04:38:58;;;;;;;22.63;13.45;;;;;;;10.14;100.00;101693.31;5017406;28;20026;-90
2022/10/30 04:41:23;;;;;;;23.92;13.82;;;;;;;10.20;100.00;101696.44;5015612;28;20045;-91
2022/10/30 04:43:49;;;;;;;20.73;13.25;;;;;;;10.28;100.00;101711.59;4999365;28;20087;-90
2022/10/30 04:46:16;;;;;;;20.13;13.40;;;;;;;10.17;100.00;101680.25;5017322;28;20041;-90
2022/10/30 04:48:42;;;;;;;22.52;12.73;;;;;;;10.28;100.00;101689.19;5036194;28;20029;-92
2022/10/30 04:51:08;;;;;;;23.30;14.00;;;;;;;10.29;100.00;101688.28;5036151;28;20025;-92
2022/10/30 04:53:33;;;;;;;21.80;13.20;;;;;;;10.18;100.00;101659.53;5036070;28;20118;-89
2022/10/30 04:55:59;;;;;;;23.00;13.23;;;;;;;10.34;100.00;101681.16;5036409;28;20037;-89
2022/10/30 04:58:24;;;;;;;22.30;13.90;;;;;;;10.33;100.00;101681.25;5036210;28;20014;-90
2022/10/30 05:00:49;;;;;;;24.65;13.15;;;;;;;10.38;100.00;101691.34;5035840;28;20029;-90
2022/10/30 05:03:19;;;;;;;22.95;14.23;;;;;;;10.34;100.00;101683.75;5036480;28;20032;-91
2022/10/30 05:05:45;;;;;;;25.02;14.68;;;;;;;10.36;100.00;101675.91;5018165;28;20486;-91
2022/10/30 05:08:10;;;;;;;20.45;13.15;;;;;;;10.42;100.00;101678.22;5035773;28;20121;-91
2022/10/30 05:10:39;;;;;;;23.65;12.95;;;;;;;10.39;100.00;101683.50;5035664;28;20057;-87
2022/10/30 05:13:04;;;;;;;18.92;13.45;;;;;;;10.18;100.00;101653.53;5035472;28;20030;-83
2022/10/30 05:15:29;;;;;;;20.38;12.98;;;;;;;10.39;100.00;101693.84;5017452;28;20025;-88
2022/10/30 05:17:55;;;;;;;20.70;12.90;;;;;;;10.39;100.00;101693.00;5035455;28;20022;-90
2022/10/30 05:20:20;;;;;;;26.00;13.77;;;;;;;10.33;100.00;101686.41;5035711;28;20029;-90
2022/10/30 05:22:56;;;;;;;19.80;12.70;;;;;;;10.34;100.00;101685.50;5035395;28;20515;-85
2022/10/30 05:25:22;;;;;;;20.15;12.48;;;;;;;10.05;100.00;101642.97;5035293;28;20018;-87
2022/10/30 05:27:48;;;;;;;23.30;13.23;;;;;;;10.28;100.00;101701.25;5035520;28;20052;-87
2022/10/30 05:30:13;;;;;;;26.15;13.93;;;;;;;9.90;100.00;101643.69;5035444;28;20033;-85
2022/10/30 05:32:38;;;;;;;24.30;13.07;;;;;;;10.19;100.00;101696.50;5035289;28;20034;-86
2022/10/30 05:35:04;;;;;;;20.52;13.10;;;;;;;10.16;100.00;101702.66;5035390;28;20461;-76
2022/10/30 05:37:29;;;;;;;18.98;12.95;;;;;;;10.09;100.00;101706.44;5035353;28;20082;-75
2022/10/30 05:39:54;;;;;;;22.55;12.77;;;;;;;9.96;100.00;101685.53;5035320;28;20033;-76
2022/10/30 05:42:20;;;;;;;22.65;12.93;;;;;;;9.98;100.00;101688.88;5035790;28;20033;-75
2022/10/30 05:44:45;;;;;;;19.45;12.80;;;;;;;9.93;100.00;101695.13;5035252;28;20017;-76
2022/10/30 05:47:11;;;;;;;21.20;13.52;;;;;;;9.95;100.00;101701.91;5035213;28;20387;-75
2022/10/30 05:49:36;;;;;;;24.60;13.27;;;;;;;9.90;100.00;101690.13;5035128;28;20472;-77
2022/10/30 05:52:01;;;;;;;25.02;13.32;;;;;;;9.79;100.00;101677.72;5035135;28;20033;-76
2022/10/30 05:54:27;;;;;;;20.00;12.60;;;;;;;9.81;100.00;101688.81;5017303;28;20017;-76
2022/10/30 05:56:52;;;;;;;22.48;12.85;;;;;;;9.83;100.00;101692.16;5034996;28;20037;-76
2022/10/30 05:59:17;;;;;;;23.38;13.75;;;;;;;9.61;100.00;101663.94;5035083;28;20032;-76
2022/10/30 06:01:42;;;;;;;21.77;12.70;;;;;;;9.74;100.00;101687.44;5034821;28;20029;-76
2022/10/30 06:04:08;;;;;;;23.38;13.07;;;;;;;9.69;100.00;101687.63;5034797;28;20021;-78
2022/10/30 06:06:33;;;;;;;21.95;13.93;;;;;;;9.62;100.00;101682.81;5034935;28;20057;-76
2022/10/30 06:08:58;;;;;;;23.77;14.20;;;;;;;9.69;100.00;101702.25;5034689;28;20508;-75
2022/10/30 06:11:24;;;;;;;22.40;13.45;;;;;;;9.65;100.00;101704.16;5034689;28;20034;-75
2022/10/30 06:13:49;;;;;;;20.30;13.18;;;;;;;9.44;100.00;101667.28;5034729;28;20103;-77
2022/10/30 06:16:14;;;;;;;21.23;13.43;;;;;;;9.46;100.00;101672.38;5034805;28;20029;-90
2022/10/30 06:18:40;;;;;;;21.88;12.90;;;;;;;9.56;100.00;101707.16;5034429;28;20037;-89
2022/10/30 06:21:05;;;;;;;19.00;12.75;;;;;;;9.44;100.00;101690.50;5034550;28;20029;-88
2022/10/30 06:23:30;;;;;;;22.98;13.70;;;;;;;9.51;100.00;101691.03;5034375;28;20500;-92
2022/10/30 06:25:56;;;;;;;22.38;13.95;;;;;;;9.51;100.00;101693.59;5033414;28;20076;-85
2022/10/30 06:28:21;;;;;;;21.98;14.05;;;;;;;9.46;100.00;101686.09;5034770;28;20029;-91
2022/10/30 06:30:46;;;;;;;23.25;13.38;;;;;;;9.32;100.00;101669.56;5034519;28;20108;-91
2022/10/30 06:33:12;;;;;;;25.27;14.50;;;;;;;9.48;100.00;101688.59;5034435;28;20026;-88
2022/10/30 06:35:37;;;;;;;23.48;13.93;;;;;;;9.39;100.00;101679.53;5034165;28;20021;-90
2022/10/30 06:38:03;;;;;;;20.20;13.05;;;;;;;9.43;100.00;101688.78;5034358;28;20029;-87
2022/10/30 06:40:29;;;;;;;20.13;13.65;;;;;;;9.44;100.00;101690.50;5034360;28;20033;-86
2022/10/30 06:42:55;;;;;;;18.60;13.30;;;;;;;9.43;100.00;101685.38;5034167;28;20396;-90
2022/10/30 06:45:22;;;;;;;17.80;12.23;;;;;;;9.43;100.00;101688.78;5034118;28;20144;-85
2022/10/30 06:47:58;;;;;;;21.13;12.60;;;;;;;9.46;100.00;101686.09;5092772;27;20138;-88
2022/10/30 06:50:24;;;;;;;20.40;13.02;;;;;;;9.47;100.00;101692.09;5090991;28;20051;-82
2022/10/30 06:52:49;;;;;;;19.95;12.30;;;;;;;9.41;100.00;101682.03;5091141;28;20025;-88
2022/10/30 06:55:16;;;;;;;17.00;11.95;;;;;;;9.53;100.00;101699.53;5090770;28;20028;-88
2022/10/30 06:57:41;;;;;;;21.30;12.60;;;;;;;9.44;100.00;101676.75;5090527;28;20038;-80
2022/10/30 07:00:07;;;;;;;21.23;13.55;;;;;;;9.56;100.00;101685.69;5090762;28;20103;-78
2022/10/30 07:02:33;;;;;;;20.48;13.13;;;;;;;9.62;100.00;101685.38;5090689;28;20044;-81
2022/10/30 07:04:58;;;;;;;26.33;15.38;;;;;;;9.62;100.00;101669.91;5090350;28;20467;-80
2022/10/30 07:07:23;;;;;;;21.33;12.68;;;;;;;9.54;100.00;101656.53;5090395;28;20470;-88
2022/10/30 07:09:49;;;;;;;19.63;13.80;;;;;;;9.64;100.00;101660.41;5090440;28;20039;-77
2022/10/30 07:12:14;;;;;;;24.20;13.65;;;;;;;9.80;100.00;101675.97;5090183;28;20479;-90
2022/10/30 07:14:40;;;;;;;19.67;13.65;;;;;;;9.79;100.00;101667.41;5090537;28;20380;-82
2022/10/30 07:17:05;;;;;;;19.35;13.40;;;;;;;9.74;100.00;101656.47;5090394;28;20024;-80
2022/10/30 07:19:31;;;;;;;20.92;14.05;;;;;;;9.93;100.00;101683.09;5090113;28;20516;-89
2022/10/30 07:21:56;;;;;;;21.05;13.93;;;;;;;9.94;100.00;101682.19;5088843;28;20040;-83
2022/10/30 07:24:21;;;;;;;23.60;15.43;;;;;;;9.89;100.00;101658.34;5088814;28;20048;-79
2022/10/30 07:26:47;;;;;;;24.20;14.73;;;;;;;10.07;100.00;101682.44;5089801;28;20024;-77
2022/10/30 07:29:12;;;;;;;23.55;15.05;;;;;;;10.16;100.00;101678.59;5090066;28;20107;-76
2022/10/30 07:31:37;;;;;;;24.65;15.32;;;;;;;10.23;100.00;101688.59;5090208;28;20020;-78
2022/10/30 07:34:02;;;;;;;22.77;14.23;;;;;;;10.26;100.00;101688.44;5089714;28;20031;-77
2022/10/30 07:36:28;;;;;;;19.83;14.10;;;;;;;10.33;100.00;101683.81;5089750;28;20035;-76
2022/10/30 07:38:53;;;;;;;20.13;13.93;;;;;;;10.41;100.00;101688.59;5090001;28;20024;-76
2022/10/30 07:41:19;;;;;;;24.88;16.20;;;;;;;10.49;100.00;101692.47;5090190;28;20023;-82
2022/10/30 07:43:45;;;;;;;25.55;16.60;;;;;;;10.49;100.00;101687.31;5089789;28;20028;-79
2022/10/30 07:46:10;;;;;;;23.85;15.73;;;;;;;10.61;100.00;101694.44;5089431;28;20487;-88
2022/10/30 07:48:36;;;;;;;24.27;15.50;;;;;;;10.69;100.00;101686.34;5089543;28;20059;-77
2022/10/30 07:51:01;;;;;;;32.25;17.08;;;;;;;10.76;100.00;101676.53;5089647;28;20025;-83
2022/10/30 07:53:27;;;;;;;28.38;17.75;;;;;;;10.80;100.00;101673.72;5090583;28;20023;-88
2022/10/30 07:55:52;;;;;;;31.08;18.95;;;;;;;10.91;100.00;101683.50;5090839;28;20031;-85
2022/10/30 07:58:17;;;;;;;24.55;17.80;;;;;;;10.93;100.00;101671.38;5082029;28;20029;-85
2022/10/30 08:00:43;;;;;;;27.40;18.70;;;;;;;11.02;100.00;101689.00;5076629;28;20045;-88
2022/10/30 08:03:10;;;;;;;29.00;19.17;;;;;;;11.10;100.00;101686.00;5076533;28;20482;-85
2022/10/30 08:05:35;;;;;;;30.30;19.98;;;;;;;11.05;100.00;101668.16;5076042;28;20104;-86
2022/10/30 08:08:00;;;;;;;31.92;21.63;;;;;;;11.14;100.00;101666.84;5076455;28;20108;-84
2022/10/30 08:10:26;;;;;;;31.98;21.75;;;;;;;11.30;100.00;101682.38;5076121;28;20029;-88
2022/10/30 08:12:51;;;;;;;31.75;20.23;;;;;;;11.39;100.00;101676.72;5076169;28;20033;-87
2022/10/30 08:15:17;;;;;;;28.58;20.48;;;;;;;11.46;100.00;101680.66;5075720;28;20028;-90
2022/10/30 08:17:44;;;;;;;32.10;19.73;;;;;;;11.41;100.00;101657.63;5075916;28;20032;-87
2022/10/30 08:20:11;;;;;;;29.95;19.35;;;;;;;11.62;100.00;101665.16;5075677;28;20070;-87
2022/10/30 08:22:51;;;;;;;28.05;19.08;;;;;;;11.57;100.00;101649.03;5075635;28;20480;-82
2022/10/30 08:25:18;;;;;;;31.17;20.40;;;;;;;11.69;100.00;101654.38;5075587;28;20162;-85
2022/10/30 08:28:00;;;;;;;29.15;19.27;;;;;;;11.86;100.00;101666.44;5075334;28;20028;-79
2022/10/30 08:30:29;;;;;;;32.08;19.70;;;;;;;11.91;100.00;101671.38;5075573;28;20028;-86
2022/10/30 08:32:59;;;;;;;31.08;20.38;;;;;;;11.99;100.00;101675.19;5075639;28;20059;-89
2022/10/30 08:35:25;;;;;;;31.08;19.75;;;;;;;12.03;100.00;101673.28;5073968;28;20032;-87
2022/10/30 08:37:54;;;;;;;31.10;19.45;;;;;;;12.16;100.00;101684.59;5075752;28;20028;-86
2022/10/30 08:40:19;;;;;;;30.20;18.10;;;;;;;12.18;100.00;101687.94;5074146;28;20162;-77
2022/10/30 08:42:56;;;;;;;37.22;19.73;;;;;;;12.22;100.00;101667.91;5075292;28;20518;-72
2022/10/30 08:45:23;;;;;;;31.80;17.33;;;;;;;12.23;100.00;101661.81;5075450;28;20214;-80
2022/10/30 08:47:57;;;;;;;23.77;17.00;;;;;;;12.40;100.00;101674.63;5074764;28;20135;-81
2022/10/30 08:50:22;;;;;;;26.67;17.45;;;;;;;12.46;100.00;101676.84;5074785;28;20036;-75
2022/10/30 08:52:47;;;;;;;29.27;17.73;;;;;;;12.52;100.00;101676.53;5073406;28;20032;-76
2022/10/30 08:55:13;;;;;;;27.48;16.60;;;;;;;12.56;100.00;101682.34;5074824;28;20463;-76
2022/10/30 08:57:38;;;;;;;27.98;16.15;;;;;;;12.63;100.00;101681.91;5073709;28;20040;-85
2022/10/30 09:00:05;;;;;;;26.58;16.42;;;;;;;12.60;100.00;101682.09;5075085;28;20029;-85
2022/10/30 09:02:31;;;;;;;26.17;17.05;;;;;;;12.76;100.00;101683.78;5075006;28;20067;-88
2022/10/30 09:04:56;;;;;;;28.63;16.92;;;;;;;12.79;100.00;101686.22;5074869;28;20540;-89
2022/10/30 09:07:21;;;;;;;29.15;17.08;;;;;;;12.78;100.00;101669.84;5074452;28;20028;-87
2022/10/30 09:09:47;;;;;;;28.42;17.15;;;;;;;12.91;100.00;101662.16;5073610;28;20484;-78
2022/10/30 09:12:12;;;;;;;27.27;17.00;;;;;;;13.10;100.00;101674.84;5074870;28;20099;-81
2022/10/30 09:14:37;;;;;;;29.40;17.80;;;;;;;13.08;100.00;101648.19;5074522;28;20028;-84
2022/10/30 09:17:03;;;;;;;28.15;17.52;;;;;;;13.28;100.00;101667.78;5074598;28;20112;-80
2022/10/30 09:19:28;;;;;;;29.40;17.45;;;;;;;13.18;100.00;101641.53;5074900;28;20092;-82
2022/10/30 09:21:53;;;;;;;29.52;17.48;;;;;;;13.35;100.00;101641.34;5074290;28;20081;-83
2022/10/30 09:24:19;;;;;;;26.58;16.83;;;;;;;13.52;100.00;101649.84;5074160;28;20031;-79
2022/10/30 09:26:44;;;;;;;32.38;19.25;;;;;;;13.73;100.00;101651.94;5074006;28;20032;-82
2022/10/30 09:29:10;;;;;;;27.17;17.58;;;;;;;13.74;100.00;101632.00;5074428;28;20353;-78
2022/10/30 09:31:35;;;;;;;30.70;18.58;;;;;;;14.00;100.00;101649.34;5074226;28;20028;-80
2022/10/30 09:34:00;;;;;;;25.48;17.17;;;;;;;14.07;100.00;101637.63;5074294;28;20066;-77
2022/10/30 09:36:25;;;;;;;24.75;16.98;;;;;;;14.19;100.00;101650.75;5073983;28;20060;-76
2022/10/30 09:38:52;;;;;;;24.83;16.73;;;;;;;14.17;100.00;101645.66;5073875;28;20523;-74
2022/10/30 09:41:46;;;;;;;29.77;16.30;;;;;;;14.32;100.00;101644.66;5073944;28;20024;-74
2022/10/30 09:44:22;;;;;;;29.13;16.48;;;;;;;14.58;100.00;101663.75;5073857;28;20032;-80
2022/10/30 09:46:58;;;;;;;28.90;16.92;;;;;;;14.71;100.00;101663.75;5073552;28;20507;-75
2022/10/30 09:49:56;;;;;;;29.27;16.92;;;;;;;14.81;100.00;101664.81;5073885;28;20024;-75
2022/10/30 09:52:38;;;;;;;27.15;16.45;;;;;;;14.90;100.00;101672.00;5073560;28;20801;-77
2022/10/30 09:55:26;;;;;;;26.58;16.48;;;;;;;14.94;100.00;101685.63;5072678;28;20099;-79
2022/10/30 09:58:09;;;;;;;28.17;15.52;;;;;;;14.99;100.00;101693.94;5073779;28;20028;-79
2022/10/30 10:00:38;;;;;;;26.00;15.95;;;;;;;14.88;100.00;101689.47;5073811;28;20119;-81
2022/10/30 10:03:18;;;;;;;26.48;14.63;;;;;;;14.96;100.00;101696.78;5073448;28;20111;-87
2022/10/30 10:05:50;;;;;;;26.85;14.98;;;;;;;14.91;100.00;101704.03;5073215;28;20472;-77
2022/10/30 10:08:30;;;;;;;21.13;13.77;;;;;;;14.90;100.00;101699.78;5073453;28;20056;-77
2022/10/30 10:11:09;;;;;;;29.20;13.45;;;;;;;14.93;100.00;101691.75;5074051;28;20082;-78
2022/10/30 10:13:40;;;;;;;23.13;13.65;;;;;;;14.92;100.00;101690.09;5073687;28;20031;-76
2022/10/30 10:16:20;;;;;;;26.90;13.80;;;;;;;14.97;100.00;101689.78;5073574;28;20440;-75
2022/10/30 10:18:47;;;;;;;27.20;13.32;;;;;;;15.06;100.00;101687.41;5073678;28;20034;-82
2022/10/30 10:21:28;;;;;;;26.08;13.75;;;;;;;15.07;100.00;101676.06;5073067;28;20418;-84
2022/10/30 10:23:57;;;;;;;28.35;13.68;;;;;;;15.05;100.00;101679.72;5073239;28;20406;-75
2022/10/30 10:26:47;;;;;;;21.25;12.98;;;;;;;15.12;100.00;101679.16;5073236;28;20077;-88
2022/10/30 10:29:27;;;;;;;25.02;13.50;;;;;;;15.13;100.00;101675.63;5073553;28;20103;-90
2022/10/30 10:32:26;;;;;;;22.23;12.35;;;;;;;15.12;100.00;101676.56;5073452;28;20031;-77
2022/10/30 10:35:03;;;;;;;23.73;12.73;;;;;;;15.14;100.00;101679.91;5073006;28;20475;-83
2022/10/30 10:37:45;;;;;;;26.33;13.98;;;;;;;15.19;100.00;101666.56;5073541;28;20029;-89
2022/10/30 10:40:32;;;;;;;23.83;13.48;;;;;;;15.25;100.00;101668.75;5073090;28;20023;-89
2022/10/30 10:43:17;;;;;;;23.75;13.23;;;;;;;15.30;100.00;101674.47;5073123;28;20036;-87
2022/10/30 10:46:02;;;;;;;28.83;13.93;;;;;;;15.33;100.00;101666.44;5065315;28;20449;-80
2022/10/30 10:48:51;;;;;;;23.50;12.63;;;;;;;15.36;100.00;101668.03;5072775;28;20471;-75
2022/10/30 10:51:23;;;;;;;25.23;13.32;;;;;;;15.41;100.00;101671.94;5073379;28;20055;-82
2022/10/30 10:53:59;;;;;;;23.48;13.20;;;;;;;15.46;100.00;101664.66;5073022;28;20025;-76
2022/10/30 10:56:41;;;;;;;26.02;12.70;;;;;;;15.57;100.00;101676.91;5073000;28;20025;-78
2022/10/30 10:59:17;;;;;;;21.80;12.13;;;;;;;15.55;100.00;101665.78;5072966;28;20032;-81
2022/10/30 11:01:57;;;;;;;28.58;12.98;;;;;;;15.68;100.00;101670.97;5071913;28;20032;-78
2022/10/30 11:04:30;;;;;;;22.02;12.35;;;;;;;15.76;99.95;101674.72;5073236;28;20052;-75
2022/10/30 11:06:57;;;;;;;23.50;11.80;;;;;;;15.77;98.73;101668.56;5071629;28;20031;-85
2022/10/30 11:09:26;;;;;;;20.92;11.82;;;;;;;15.85;99.44;101665.41;5072709;28;20032;-86
2022/10/30 11:11:53;;;;;;;23.70;11.90;;;;;;;15.92;97.23;101668.38;5072994;28;20024;-88
2022/10/30 11:14:21;;;;;;;28.95;13.50;;;;;;;15.95;96.79;101661.19;5072805;28;20033;-79